Time;durP1;ratioP1;P1;durP2;ratioP2;P2;SDS_P1;SDS_P2;PMS_P1;PMS_P2;Temp;Humidity;BMP_temperature;BMP_pressure;BME280_temperature;BME280_humidity;BME280_pressure;Samples;Min_cycle;Max_cycle;Signal;HPM_P1;HPM_P2
2022/01/22 00:00:19;;;;;;;12.23;4.82;;;6.30;46.00;;;;;;6299474;28;20054;-71
2022/01/22 00:03:20;;;;;;;13.55;4.85;;;6.30;46.10;;;;;;6317047;28;20035;-70
2022/01/22 00:06:21;;;;;;;18.48;5.05;;;6.30;46.30;;;;;;6292822;28;20024;-71
2022/01/22 00:09:25;;;;;;;16.52;5.20;;;6.20;46.50;;;;;;6292891;28;20108;-71
2022/01/22 00:15:34;;;;;;;16.42;4.90;;;6.20;46.80;;;;;;6299448;28;20016;-70
2022/01/22 00:18:35;;;;;;;9.05;4.57;;;6.10;46.90;;;;;;6299044;28;20115;-70
2022/01/22 00:21:40;;;;;;;14.95;5.55;;;6.10;46.90;;;;;;6282622;28;20393;-70
2022/01/22 00:24:41;;;;;;;9.73;4.35;;;6.10;47.10;;;;;;6298597;28;20055;-70
2022/01/22 00:27:44;;;;;;;18.92;8.30;;;6.10;47.20;;;;;;6299366;28;20069;-71
2022/01/22 00:30:45;;;;;;;15.10;3.88;;;6.10;47.20;;;;;;6312616;28;20047;-71
2022/01/22 00:33:46;;;;;;;12.48;4.63;;;6.10;47.20;;;;;;6298746;28;20036;-71
2022/01/22 00:36:47;;;;;;;12.35;4.03;;;6.00;47.20;;;;;;6299005;28;20024;-71
2022/01/22 00:39:48;;;;;;;9.95;4.05;;;6.00;47.10;;;;;;6297086;28;20066;-69
2022/01/22 00:42:50;;;;;;;12.00;3.53;;;6.00;47.30;;;;;;6298612;28;20028;-69
2022/01/22 00:45:51;;;;;;;10.05;3.90;;;5.90;47.30;;;;;;6298903;28;20039;-70
2022/01/22 00:48:52;;;;;;;12.85;4.88;;;5.90;47.40;;;;;;6281222;28;20038;-70
2022/01/22 00:51:53;;;;;;;12.65;4.28;;;5.80;47.40;;;;;;6302176;28;20107;-70
2022/01/22 00:54:54;;;;;;;10.23;3.85;;;5.80;47.50;;;;;;6303266;28;20085;-69
2022/01/22 00:57:55;;;;;;;15.20;4.93;;;5.70;47.60;;;;;;6303147;28;20048;-71
2022/01/22 01:00:56;;;;;;;9.35;4.60;;;5.70;47.60;;;;;;6286526;28;20028;-69
2022/01/22 01:04:01;;;;;;;15.38;4.80;;;5.60;47.70;;;;;;6302944;28;20039;-70
2022/01/22 01:07:04;;;;;;;13.23;4.65;;;5.70;47.80;;;;;;6303040;28;20021;-70
2022/01/22 01:10:07;;;;;;;5.13;3.45;;;5.60;47.90;;;;;;6302890;28;20097;-70
2022/01/22 01:13:09;;;;;;;14.40;3.67;;;5.60;48.00;;;;;;6302700;28;20031;-70
2022/01/22 01:16:20;;;;;;;4.75;2.65;;;5.60;48.10;;;;;;6302553;28;20458;-71
2022/01/22 01:35:45;;;;;;;15.40;4.50;;;5.40;48.70;;;;;;6302280;28;20028;-70
2022/01/22 01:38:52;;;;;;;8.68;3.72;;;5.50;48.70;;;;;;6285247;28;20059;-70
2022/01/22 01:42:02;;;;;;;11.33;5.20;;;5.40;48.70;;;;;;6285636;28;20028;-70
2022/01/22 01:45:06;;;;;;;15.23;4.97;;;5.50;48.80;;;;;;6302132;28;20039;-70
2022/01/22 01:48:20;;;;;;;14.95;5.90;;;5.50;48.90;;;;;;6299515;28;20036;-70
2022/01/22 01:51:24;;;;;;;18.75;7.30;;;5.50;49.10;;;;;;6280637;28;20492;-71
2022/01/22 01:57:40;;;;;;;25.02;8.38;;;5.60;49.40;;;;;;6303694;28;20330;-69
2022/01/22 02:00:46;;;;;;;13.82;5.15;;;5.60;49.50;;;;;;6301373;28;20464;-70
2022/01/22 02:03:48;;;;;;;13.05;4.68;;;5.60;49.60;;;;;;6301730;28;20078;-70
2022/01/22 02:06:55;;;;;;;7.82;4.13;;;5.60;49.50;;;;;;6300967;28;20032;-70
2022/01/22 02:09:58;;;;;;;11.05;4.07;;;5.50;49.50;;;;;;6299153;28;20036;-70
2022/01/22 02:14:00;;;;;;;9.82;4.28;;;5.50;49.40;;;;;;6301485;28;20035;-70
2022/01/22 02:23:54;;;;;;;10.65;4.40;;;5.40;49.50;;;;;;6318407;28;20040;-70
2022/01/22 02:26:56;;;;;;;19.10;4.93;;;5.40;49.50;;;;;;6301246;28;20705;-70
2022/01/22 02:30:05;;;;;;;9.30;3.83;;;5.30;49.60;;;;;;6295433;28;20024;-71
2022/01/22 02:36:38;;;;;;;14.68;3.72;;;5.40;49.50;;;;;;6300941;28;20388;-70
2022/01/22 02:39:57;;;;;;;;;;;5.40;49.50;;;;;;6281509;28;20391;-71
2022/01/22 02:42:59;;;;;;;5.45;3.60;;;5.40;49.50;;;;;;6300860;28;20340;-70
2022/01/22 02:46:01;;;;;;;16.75;4.10;;;5.40;49.60;;;;;;6300776;28;20028;-70
2022/01/22 02:49:03;;;;;;;15.15;5.55;;;5.30;49.60;;;;;;6283013;28;20321;-70
2022/01/22 02:52:08;;;;;;;12.45;5.45;;;5.30;49.80;;;;;;6300553;28;20078;-71
2022/01/22 02:55:12;;;;;;;16.05;5.10;;;5.30;49.90;;;;;;6299698;28;20024;-71
2022/01/22 02:58:15;;;;;;;8.07;3.75;;;5.30;50.10;;;;;;6300636;28;20480;-70
2022/01/22 03:01:17;;;;;;;12.77;4.25;;;5.30;50.10;;;;;;6283177;28;20516;-69
2022/01/22 03:04:20;;;;;;;8.10;3.67;;;5.20;50.20;;;;;;6310513;28;20027;-70
2022/01/22 03:07:21;;;;;;;13.90;3.75;;;5.20;50.20;;;;;;6278111;28;20082;-69
2022/01/22 03:10:25;;;;;;;13.95;4.65;;;5.20;50.10;;;;;;6299658;28;20028;-70
2022/01/22 03:29:12;;;;;;;7.22;3.30;;;5.10;50.10;;;;;;6300425;28;20035;-69
2022/01/22 03:32:14;;;;;;;7.85;3.88;;;5.10;50.10;;;;;;6311631;28;20418;-69
2022/01/22 03:38:19;;;;;;;12.52;5.43;;;5.20;50.30;;;;;;6317356;28;20020;-70
2022/01/22 03:41:20;;;;;;;20.85;5.47;;;5.20;50.30;;;;;;6299768;28;20052;-69
2022/01/22 03:44:26;;;;;;;17.77;3.85;;;5.20;50.50;;;;;;6283608;28;20028;-70
2022/01/22 03:47:30;;;;;;;11.02;4.95;;;5.20;50.50;;;;;;6299649;28;20405;-69
2022/01/22 03:50:32;;;;;;;11.48;5.13;;;5.20;50.60;;;;;;6282339;28;20028;-71
2022/01/22 03:53:33;;;;;;;10.30;4.65;;;5.20;50.70;;;;;;6298625;28;20103;-71
2022/01/22 03:56:35;;;;;;;10.10;5.30;;;5.20;50.80;;;;;;6299741;28;20377;-70
2022/01/22 03:59:46;;;;;;;17.27;6.38;;;5.20;50.90;;;;;;6299838;28;20062;-70
2022/01/22 04:03:30;;;;;;;10.20;4.63;;;5.20;51.00;;;;;;6215449;28;20080;-69
2022/01/22 04:09:40;;;;;;;13.63;5.00;;;5.10;51.10;;;;;;6200000;28;20038;-69
2022/01/22 04:15:43;;;;;;;18.92;6.20;;;5.10;51.20;;;;;;6214895;28;20037;-69
2022/01/22 04:25:26;;;;;;;19.33;6.32;;;5.10;51.30;;;;;;6200394;28;20050;-70
2022/01/22 04:28:27;;;;;;;12.55;5.47;;;5.10;51.30;;;;;;6203630;28;20121;-70
2022/01/22 04:31:28;;;;;;;11.18;4.15;;;5.00;51.30;;;;;;6219820;28;20117;-70
2022/01/22 04:34:29;;;;;;;13.00;4.60;;;4.90;51.40;;;;;;6203346;28;20717;-70
2022/01/22 04:37:30;;;;;;;11.00;4.55;;;4.80;51.40;;;;;;6219256;28;20029;-69
2022/01/22 04:40:31;;;;;;;10.38;3.97;;;4.70;51.50;;;;;;6270503;28;20033;-70
2022/01/22 04:43:36;;;;;;;9.80;3.88;;;4.70;51.50;;;;;;6278780;28;20453;-71
2022/01/22 04:56:07;;;;;;;12.32;4.72;;;4.70;51.80;;;;;;6295500;28;20032;-71
2022/01/22 04:59:09;;;;;;;21.70;6.40;;;4.70;51.80;;;;;;6278720;28;20338;-69
2022/01/22 05:02:10;;;;;;;20.20;5.78;;;5.00;52.00;;;;;;6278780;28;20116;-71
2022/01/22 05:05:31;;;;;;;10.38;4.30;;;4.70;52.00;;;;;;6296781;28;20033;-70
2022/01/22 05:08:47;;;;;;;11.68;4.03;;;4.70;52.10;;;;;;6295113;28;20025;-71
2022/01/22 05:11:51;;;;;;;9.80;3.45;;;4.60;52.10;;;;;;6295117;28;20036;-70
2022/01/22 05:14:55;;;;;;;8.02;3.72;;;4.60;52.10;;;;;;6295024;28;20034;-72
2022/01/22 05:17:58;;;;;;;11.15;4.13;;;4.50;52.00;;;;;;6295155;28;20078;-70
2022/01/22 05:21:08;;;;;;;10.68;4.95;;;4.50;52.00;;;;;;6293821;28;20119;-69
2022/01/22 05:24:13;;;;;;;10.35;3.50;;;4.50;52.10;;;;;;6294996;28;20044;-69
2022/01/22 05:30:56;;;;;;;8.38;3.53;;;4.40;52.40;;;;;;6281822;28;20037;-71
2022/01/22 05:37:43;;;;;;;41.53;12.25;;;4.40;52.40;;;;;;6292018;28;20117;-70
2022/01/22 05:40:44;;;;;;;32.78;12.35;;;4.40;52.40;;;;;;6294735;28;20116;-70
2022/01/22 05:43:45;;;;;;;23.33;10.05;;;4.30;52.50;;;;;;6286798;28;20021;-70
2022/01/22 05:46:51;;;;;;;27.70;9.95;;;4.30;52.50;;;;;;6293958;28;20067;-71
2022/01/22 05:49:53;;;;;;;23.58;8.10;;;4.30;52.60;;;;;;6294614;28;20477;-70
2022/01/22 05:52:59;;;;;;;18.52;7.78;;;4.30;52.60;;;;;;6294311;28;20517;-70
2022/01/22 05:59:38;;;;;;;8.43;4.32;;;4.30;52.80;;;;;;6294177;28;20098;-69
2022/01/22 06:02:40;;;;;;;13.60;5.00;;;4.30;52.80;;;;;;6293898;28;20036;-70
2022/01/22 06:05:41;;;;;;;13.00;5.72;;;4.20;52.80;;;;;;6277214;28;20512;-71
2022/01/22 06:08:51;;;;;;;11.75;3.58;;;4.20;52.80;;;;;;6293860;28;20111;-70
2022/01/22 06:11:58;;;;;;;23.05;4.55;;;4.20;52.80;;;;;;6277356;28;20031;-70
2022/01/22 06:15:08;;;;;;;12.18;4.20;;;4.20;52.80;;;;;;6278210;28;20713;-69
2022/01/22 06:18:22;;;;;;;12.77;3.50;;;4.20;52.80;;;;;;6278875;28;20033;-69
2022/01/22 06:21:26;;;;;;;8.38;3.47;;;4.20;52.70;;;;;;6293092;28;20386;-70
2022/01/22 06:24:27;;;;;;;9.90;4.57;;;4.20;52.70;;;;;;6275682;28;20040;-69
2022/01/22 06:27:30;;;;;;;13.80;3.97;;;4.20;52.60;;;;;;6293717;28;20036;-70
2022/01/22 06:30:32;;;;;;;11.35;3.17;;;4.30;52.60;;;;;;6293765;28;20028;-71
2022/01/22 06:33:33;;;;;;;5.97;2.95;;;4.30;52.50;;;;;;6289213;28;20785;-74
2022/01/22 06:36:34;;;;;;;4.20;2.88;;;4.30;52.40;;;;;;6293122;28;20051;-71
2022/01/22 06:41:44;;;;;;;8.68;4.10;;;4.30;52.40;;;;;;6286489;28;20017;-69
2022/01/22 06:43:40;;;;;;;12.48;4.00;;;4.40;52.40;;;;;;6192855;28;20553;-71
2022/01/22 06:46:50;;;;;;;;;;;4.40;52.40;;;;;;6193042;28;20026;-71
2022/01/22 06:50:23;;;;;;;12.13;3.00;;;4.40;52.40;;;;;;6179822;28;19910;-70
2022/01/22 06:53:24;;;;;;;9.15;3.53;;;4.40;52.30;;;;;;6168201;28;20110;-70
2022/01/22 06:56:29;;;;;;;11.18;4.07;;;4.40;52.40;;;;;;6168678;28;20038;-71
2022/01/22 06:59:50;;;;;;;10.32;4.72;;;4.40;52.40;;;;;;6168224;28;20054;-70
2022/01/22 07:02:53;;;;;;;24.58;6.38;;;4.40;52.60;;;;;;6168415;28;20683;-70
2022/01/22 07:05:54;;;;;;;19.25;5.85;;;4.40;52.80;;;;;;6168313;28;20035;-70
2022/01/22 07:08:57;;;;;;;16.05;5.82;;;4.30;53.00;;;;;;6167453;28;20038;-69
2022/01/22 07:11:58;;;;;;;14.63;6.47;;;4.30;53.30;;;;;;6167993;28;20050;-71
2022/01/22 07:15:00;;;;;;;13.07;4.07;;;4.30;53.40;;;;;;6189382;28;20038;-72
2022/01/22 07:18:01;;;;;;;12.35;4.78;;;4.30;53.50;;;;;;6183747;28;20087;-71
2022/01/22 07:21:13;;;;;;;12.23;4.85;;;4.30;53.50;;;;;;6199165;28;20022;-71
2022/01/22 07:24:23;;;;;;;13.60;4.78;;;4.30;53.60;;;;;;6222844;28;20058;-69
2022/01/22 07:27:29;;;;;;;8.05;3.55;;;4.40;53.50;;;;;;6292181;28;20024;-70
2022/01/22 07:30:30;;;;;;;10.88;4.00;;;4.30;53.40;;;;;;6292019;28;20024;-71
2022/01/22 07:33:34;;;;;;;15.70;4.80;;;4.30;53.40;;;;;;6291867;28;20123;-71
2022/01/22 07:36:35;;;;;;;12.38;4.53;;;4.30;53.50;;;;;;6292145;28;20046;-69
2022/01/22 07:39:36;;;;;;;13.43;4.07;;;4.30;53.50;;;;;;6287953;28;20032;-70
2022/01/22 07:43:03;;;;;;;5.45;3.40;;;4.30;53.40;;;;;;6261565;28;20166;-70
2022/01/22 07:46:23;;;;;;;10.77;4.00;;;4.40;53.30;;;;;;6291467;28;20040;-69
2022/01/22 07:49:30;;;;;;;22.63;6.20;;;4.40;53.10;;;;;;6275496;28;20036;-70
2022/01/22 07:52:35;;;;;;;10.55;3.45;;;4.40;53.10;;;;;;6291263;28;20078;-72
2022/01/22 07:55:36;;;;;;;7.95;3.83;;;4.40;53.10;;;;;;6274484;28;20115;-70
2022/01/22 07:58:37;;;;;;;13.85;4.60;;;4.50;53.00;;;;;;6292471;28;20102;-71
2022/01/22 08:01:40;;;;;;;8.60;4.65;;;4.50;53.00;;;;;;6299596;28;20528;-70
2022/01/22 08:04:50;;;;;;;10.18;4.25;;;4.50;53.00;;;;;;6299428;28;20036;-70
2022/01/22 08:07:51;;;;;;;11.32;4.45;;;4.50;53.50;;;;;;6299860;28;20047;-69
2022/01/22 08:11:12;;;;;;;12.63;5.13;;;4.50;52.90;;;;;;6299460;28;20166;-71
2022/01/22 08:14:13;;;;;;;22.60;5.80;;;4.60;52.90;;;;;;6282415;28;20039;-70
2022/01/22 08:17:23;;;;;;;9.38;4.18;;;4.60;52.80;;;;;;6299473;28;20078;-72
2022/01/22 08:20:28;;;;;;;10.18;4.88;;;4.60;52.70;;;;;;6282795;28;20028;-71
2022/01/22 08:23:32;;;;;;;10.40;3.75;;;4.60;52.60;;;;;;6308175;28;20051;-70
2022/01/22 08:27:13;;;;;;;8.82;3.78;;;4.70;52.70;;;;;;6310642;28;20039;-71
2022/01/22 08:30:15;;;;;;;15.55;4.07;;;4.70;52.60;;;;;;6307676;28;20119;-71
2022/01/22 08:36:26;;;;;;;9.23;3.65;;;4.70;52.40;;;;;;6307390;28;20081;-71
2022/01/22 08:39:27;;;;;;;19.15;5.05;;;4.80;52.40;;;;;;6307474;28;20099;-70
2022/01/22 08:42:30;;;;;;;8.75;3.65;;;4.80;52.40;;;;;;6307400;28;20024;-72
2022/01/22 08:45:31;;;;;;;9.45;4.00;;;4.80;52.30;;;;;;6307511;28;20521;-72
2022/01/22 08:48:35;;;;;;;11.15;4.75;;;4.80;52.90;;;;;;6291562;28;20047;-73
2022/01/22 08:51:39;;;;;;;12.75;4.40;;;4.80;52.20;;;;;;6289883;28;20033;-71
2022/01/22 08:54:43;;;;;;;10.18;4.30;;;4.90;52.20;;;;;;6307056;28;20035;-69
2022/01/22 08:57:49;;;;;;;16.05;4.65;;;4.90;52.10;;;;;;6290535;28;20081;-71
2022/01/22 09:01:07;;;;;;;8.98;4.07;;;5.00;51.90;;;;;;6292741;28;20110;-72
2022/01/22 09:04:12;;;;;;;12.23;4.97;;;5.10;52.00;;;;;;6290885;28;20050;-71
2022/01/22 09:07:39;;;;;;;7.13;3.90;;;5.20;51.90;;;;;;6323998;28;20028;-70
2022/01/22 09:10:59;;;;;;;14.10;4.85;;;5.30;51.70;;;;;;6306976;28;20044;-72
2022/01/22 09:14:23;;;;;;;14.77;4.63;;;5.30;51.50;;;;;;6320650;28;20113;-70
2022/01/22 09:17:29;;;;;;;15.20;6.63;;;5.40;51.30;;;;;;6302863;28;20020;-71
2022/01/22 09:20:43;;;;;;;12.45;4.85;;;5.50;51.20;;;;;;6302723;28;20032;-71
2022/01/22 09:23:46;;;;;;;23.05;4.53;;;5.60;51.10;;;;;;6278342;28;20044;-71
2022/01/22 09:26:53;;;;;;;16.10;5.50;;;5.60;50.80;;;;;;6294670;28;20112;-73
2022/01/22 09:29:54;;;;;;;11.85;5.18;;;5.70;50.70;;;;;;6287662;28;20039;-71
2022/01/22 09:32:56;;;;;;;14.52;6.10;;;5.80;50.70;;;;;;6294145;28;20043;-71
2022/01/22 09:36:20;;;;;;;22.00;7.07;;;5.80;50.60;;;;;;6295102;28;20036;-71
2022/01/22 09:39:24;;;;;;;14.15;7.10;;;5.90;50.20;;;;;;6294270;28;20029;-70
2022/01/22 09:42:28;;;;;;;18.65;6.60;;;6.00;50.00;;;;;;6295080;28;20028;-71
2022/01/22 09:45:50;;;;;;;19.23;6.55;;;6.10;49.90;;;;;;6289916;28;20036;-70
2022/01/22 09:49:01;;;;;;;25.92;6.28;;;6.10;49.50;;;;;;6292902;28;20085;-71
2022/01/22 09:52:24;;;;;;;14.68;5.28;;;6.20;49.50;;;;;;6273981;28;20108;-70
2022/01/22 09:55:51;;;;;;;11.48;4.63;;;6.30;49.40;;;;;;6223888;28;20474;-71
2022/01/22 09:58:52;;;;;;;10.10;5.20;;;6.30;48.90;;;;;;6216978;28;20045;-71
2022/01/22 10:02:17;;;;;;;17.58;5.53;;;6.40;48.80;;;;;;6200693;28;20029;-71
2022/01/22 10:05:29;;;;;;;13.88;4.95;;;6.40;48.70;;;;;;6218214;28;20065;-71
2022/01/22 10:08:51;;;;;;;15.55;6.32;;;6.50;48.70;;;;;;6233021;28;20088;-71
2022/01/22 10:12:16;;;;;;;13.55;5.20;;;6.60;48.40;;;;;;6217019;28;20030;-71
2022/01/22 10:15:36;;;;;;;12.55;5.28;;;6.70;48.20;;;;;;6217079;28;20042;-70
2022/01/22 10:19:30;;;;;;;15.43;6.22;;;6.80;48.10;;;;;;6200403;28;20471;-71
2022/01/22 10:22:45;;;;;;;11.13;5.72;;;7.20;47.80;;;;;;6162266;28;20041;-70
2022/01/22 10:25:56;;;;;;;11.13;6.07;;;7.60;47.30;;;;;;6167836;28;20082;-71
2022/01/22 10:29:01;;;;;;;12.45;4.63;;;7.80;46.20;;;;;;6157664;28;20031;-72
2022/01/22 10:32:04;;;;;;;10.13;3.83;;;7.90;45.60;;;;;;6189943;28;20084;-70
2022/01/22 10:35:37;;;;;;;9.18;4.05;;;8.00;45.60;;;;;;6142621;29;20047;-70
2022/01/22 10:38:57;;;;;;;14.43;4.35;;;8.20;45.20;;;;;;6140071;29;20039;-70
2022/01/22 10:41:58;;;;;;;11.50;5.55;;;8.40;45.00;;;;;;6144004;29;20402;-70
2022/01/22 10:45:00;;;;;;;11.50;5.03;;;8.60;44.40;;;;;;6128340;29;20113;-72
2022/01/22 10:48:21;;;;;;;8.27;3.88;;;8.70;43.70;;;;;;6143700;29;20035;-70
2022/01/22 10:51:23;;;;;;;9.88;4.30;;;8.90;43.30;;;;;;6142750;28;20035;-71
2022/01/22 10:54:26;;;;;;;11.02;4.53;;;9.00;43.00;;;;;;6209174;28;20648;-71
2022/01/22 10:57:27;;;;;;;6.90;3.90;;;9.10;42.10;;;;;;6215385;28;20030;-72
2022/01/22 11:00:28;;;;;;;11.55;5.10;;;9.20;42.00;;;;;;6215133;28;20439;-72
2022/01/22 11:03:30;;;;;;;13.30;5.43;;;9.20;41.80;;;;;;6215308;28;20038;-72
2022/01/22 11:06:31;;;;;;;12.07;5.05;;;9.40;41.40;;;;;;6182339;28;20025;-71
2022/01/22 11:09:34;;;;;;;10.13;4.15;;;9.60;40.80;;;;;;6216372;28;20351;-73
2022/01/22 11:12:35;;;;;;;15.30;4.57;;;9.80;40.60;;;;;;6291091;28;20082;-71
2022/01/22 11:15:39;;;;;;;29.83;8.93;;;10.10;40.30;;;;;;6292291;28;20036;-72
2022/01/22 11:18:46;;;;;;;12.45;4.82;;;10.40;40.00;;;;;;6290824;28;20035;-70
2022/01/22 11:21:52;;;;;;;10.27;4.70;;;10.80;39.00;;;;;;6290118;28;20532;-70
2022/01/22 11:24:56;;;;;;;20.75;5.75;;;11.00;38.40;;;;;;6290537;28;20131;-73
2022/01/22 11:27:58;;;;;;;21.38;4.82;;;11.30;37.90;;;;;;6274201;28;20036;-70
2022/01/22 11:31:01;;;;;;;19.67;7.35;;;11.70;37.40;;;;;;6290576;28;20089;-73
2022/01/22 11:34:04;;;;;;;12.23;5.22;;;12.10;36.60;;;;;;6290798;28;20036;-72
2022/01/22 11:37:27;;;;;;;11.80;4.72;;;12.60;35.90;;;;;;6291679;28;20021;-71
2022/01/22 11:40:32;;;;;;;9.93;4.43;;;13.10;34.90;;;;;;6303469;28;20031;-71
2022/01/22 11:47:13;;;;;;;11.30;3.80;;;14.20;32.70;;;;;;6187048;28;20049;-71
2022/01/22 11:50:15;;;;;;;8.10;3.70;;;14.50;32.00;;;;;;6156901;28;20042;-71
2022/01/22 11:53:32;;;;;;;10.35;4.22;;;14.70;31.10;;;;;;6174386;28;20105;-71
2022/01/22 11:56:52;;;;;;;9.70;4.65;;;14.90;31.10;;;;;;6174410;28;20709;-71
2022/01/22 12:00:15;;;;;;;9.40;4.30;;;15.30;30.90;;;;;;6157921;28;20030;-71
2022/01/22 12:03:19;;;;;;;11.43;4.15;;;15.90;29.50;;;;;;6189924;28;20102;-70
2022/01/22 12:06:21;;;;;;;17.42;4.85;;;16.00;28.90;;;;;;6173489;28;20109;-70
2022/01/22 12:09:26;;;;;;;11.57;3.92;;;16.10;28.80;;;;;;6173344;28;20181;-71
2022/01/22 12:15:54;;;;;;;11.57;4.20;;;15.00;29.50;;;;;;6189561;28;20047;-72
2022/01/22 12:19:00;;;;;;;10.25;4.15;;;14.10;30.50;;;;;;6173447;28;20042;-71
2022/01/22 12:22:01;;;;;;;14.55;4.72;;;13.40;31.40;;;;;;6184905;28;20048;-71
2022/01/22 12:25:22;;;;;;;15.82;3.78;;;12.80;32.40;;;;;;6273027;28;20097;-72
2022/01/22 12:28:52;;;;;;;9.27;3.88;;;12.30;33.20;;;;;;6290308;28;20031;-71
2022/01/22 12:32:07;;;;;;;9.50;4.07;;;11.90;33.70;;;;;;6197327;28;20581;-70
2022/01/22 12:35:10;;;;;;;9.15;3.60;;;11.40;34.20;;;;;;6194628;28;20042;-72
2022/01/22 12:38:37;;;;;;;7.60;3.78;;;11.00;34.80;;;;;;6211648;28;20034;-71
2022/01/22 12:44:46;;;;;;;13.00;5.28;;;10.40;35.90;;;;;;6212133;28;20065;-70
2022/01/22 12:47:49;;;;;;;11.43;4.35;;;10.20;36.40;;;;;;6218459;28;20069;-71
2022/01/22 12:50:50;;;;;;;12.15;4.10;;;10.10;36.70;;;;;;6201028;28;20037;-71
2022/01/22 12:53:51;;;;;;;11.70;3.67;;;10.10;36.90;;;;;;6218317;28;20447;-70
2022/01/22 12:57:04;;;;;;;10.43;3.58;;;10.00;37.10;;;;;;6201461;28;20447;-70
2022/01/22 13:00:16;;;;;;;7.13;3.38;;;9.90;37.40;;;;;;6201961;28;20033;-71
2022/01/22 13:03:39;;;;;;;7.53;3.58;;;9.90;37.50;;;;;;6201551;28;20030;-71
2022/01/22 13:06:46;;;;;;;7.50;3.70;;;9.90;37.70;;;;;;6184660;28;20065;-71
2022/01/22 13:10:07;;;;;;;7.82;3.92;;;9.90;37.60;;;;;;6290916;28;20518;-71
2022/01/22 13:13:10;;;;;;;14.73;4.18;;;9.80;37.70;;;;;;6295307;28;20025;-71
2022/01/22 13:16:16;;;;;;;11.30;5.00;;;9.80;37.80;;;;;;6294375;28;20505;-72
2022/01/22 13:19:19;;;;;;;14.52;4.72;;;9.70;37.90;;;;;;6295224;28;20041;-72
2022/01/22 13:22:29;;;;;;;9.63;3.58;;;9.70;37.90;;;;;;6292706;28;20029;-71
2022/01/22 13:25:30;;;;;;;9.18;4.05;;;9.60;38.60;;;;;;6293055;28;20109;-72
2022/01/22 13:28:36;;;;;;;8.85;3.45;;;9.50;38.20;;;;;;6293725;28;20080;-72
2022/01/22 13:31:37;;;;;;;10.13;3.90;;;9.50;38.30;;;;;;6294699;28;20029;-72
2022/01/22 13:38:40;;;;;;;12.70;3.92;;;9.40;38.60;;;;;;6286924;28;20017;-71
2022/01/22 13:48:31;;;;;;;5.65;2.67;;;9.50;38.70;;;;;;6290138;28;20082;-71
2022/01/22 13:51:33;;;;;;;8.52;3.17;;;9.50;38.70;;;;;;6292300;28;20024;-74
2022/01/22 13:54:42;;;;;;;9.32;3.10;;;9.50;38.70;;;;;;6292934;28;20117;-70
2022/01/22 13:57:44;;;;;;;9.07;3.30;;;9.50;38.70;;;;;;6287833;28;20658;-72
2022/01/22 14:00:45;;;;;;;9.82;4.05;;;9.50;38.80;;;;;;6293394;28;20043;-72
2022/01/22 14:04:05;;;;;;;9.23;3.35;;;9.50;38.80;;;;;;6291919;28;20036;-71
2022/01/22 14:07:30;;;;;;;7.90;3.42;;;9.60;38.90;;;;;;6274434;28;20025;-70
2022/01/22 14:10:32;;;;;;;7.97;3.47;;;9.60;38.80;;;;;;6292006;28;20080;-71
2022/01/22 14:13:34;;;;;;;5.68;2.92;;;9.70;38.90;;;;;;6292545;28;20361;-71
2022/01/22 14:16:35;;;;;;;8.30;3.83;;;9.70;38.90;;;;;;6292256;28;20048;-71
2022/01/22 14:19:36;;;;;;;20.25;3.85;;;9.70;38.80;;;;;;6275292;28;20103;-71
2022/01/22 14:22:56;;;;;;;11.60;3.92;;;9.70;38.80;;;;;;6291292;28;20055;-71
2022/01/22 14:26:08;;;;;;;7.63;3.17;;;9.70;38.90;;;;;;6317448;28;20632;-71
2022/01/22 14:29:14;;;;;;;6.70;3.15;;;9.70;39.00;;;;;;6317487;28;20111;-71
2022/01/22 14:32:18;;;;;;;12.18;4.68;;;9.70;39.10;;;;;;6282641;28;20402;-71
2022/01/22 14:35:20;;;;;;;11.15;3.53;;;9.70;39.00;;;;;;6317390;28;20027;-73
2022/01/22 14:38:39;;;;;;;5.45;2.97;;;9.60;39.00;;;;;;6299094;28;20020;-71
2022/01/22 14:45:17;;;;;;;4.43;2.72;;;9.60;39.10;;;;;;6317235;28;20554;-70
2022/01/22 14:48:18;;;;;;;8.48;3.55;;;9.60;39.10;;;;;;6299144;28;20060;-71
2022/01/22 14:51:20;;;;;;;9.07;3.50;;;9.60;39.10;;;;;;6282218;28;20444;-71
2022/01/22 14:54:22;;;;;;;8.30;3.67;;;9.60;39.80;;;;;;6282561;28;20073;-71
2022/01/22 14:57:29;;;;;;;9.98;3.58;;;9.60;39.20;;;;;;6299575;28;20349;-71
2022/01/22 15:00:30;;;;;;;9.68;3.80;;;9.60;39.20;;;;;;6316886;28;20484;-73
2022/01/22 15:03:31;;;;;;;11.35;4.07;;;9.70;39.30;;;;;;6299554;28;20092;-71
2022/01/22 15:06:33;;;;;;;10.98;2.90;;;9.70;39.20;;;;;;6282247;28;20372;-70
2022/01/22 15:09:35;;;;;;;10.82;3.13;;;9.70;39.20;;;;;;6296951;28;20027;-70
2022/01/22 15:12:37;;;;;;;12.60;3.85;;;9.70;39.10;;;;;;6316817;28;20032;-73
2022/01/22 15:15:42;;;;;;;8.15;3.95;;;9.80;39.10;;;;;;6281547;28;20028;-71
2022/01/22 15:21:49;;;;;;;8.05;3.53;;;9.70;39.10;;;;;;6316597;28;20028;-70
2022/01/22 15:24:51;;;;;;;8.32;3.33;;;9.70;39.10;;;;;;6281567;28;20044;-72
2022/01/22 15:27:53;;;;;;;12.13;4.15;;;9.70;39.30;;;;;;6298634;28;20028;-71
2022/01/22 15:30:54;;;;;;;10.05;4.25;;;9.70;39.40;;;;;;6298035;28;20020;-72
2022/01/22 15:34:14;;;;;;;11.38;4.35;;;9.60;39.40;;;;;;6298276;28;20069;-71
2022/01/22 15:37:15;;;;;;;8.80;4.00;;;9.50;39.50;;;;;;6316136;28;20028;-72
2022/01/22 15:40:19;;;;;;;7.30;3.97;;;9.50;39.60;;;;;;6295795;28;20118;-70
2022/01/22 15:43:20;;;;;;;13.23;3.88;;;9.40;39.70;;;;;;6290039;28;20059;-72
2022/01/22 15:46:21;;;;;;;13.02;4.40;;;9.30;39.80;;;;;;6296877;28;20036;-71
2022/01/22 15:49:23;;;;;;;8.10;4.18;;;9.30;39.90;;;;;;6298312;28;20059;-71
2022/01/22 15:52:26;;;;;;;11.18;3.95;;;9.20;40.10;;;;;;6297647;28;20031;-70
2022/01/22 15:55:27;;;;;;;6.65;3.60;;;9.10;40.20;;;;;;6315925;28;20024;-71
2022/01/22 15:58:29;;;;;;;9.50;3.85;;;9.10;40.30;;;;;;6281104;28;20164;-71
2022/01/22 16:01:30;;;;;;;6.93;3.63;;;9.10;40.40;;;;;;6316842;28;20021;-71
2022/01/22 16:04:33;;;;;;;13.07;4.10;;;9.00;40.50;;;;;;6316852;28;20028;-71
2022/01/22 16:07:34;;;;;;;10.55;3.92;;;9.00;40.70;;;;;;6315640;28;20136;-71
2022/01/22 16:10:35;;;;;;;6.80;3.72;;;8.90;40.70;;;;;;6298181;28;20046;-72
2022/01/22 16:13:36;;;;;;;8.05;4.70;;;8.90;40.90;;;;;;6315578;28;20047;-72
2022/01/22 16:16:42;;;;;;;7.45;3.78;;;8.90;41.00;;;;;;6315255;28;20024;-73
2022/01/22 16:19:43;;;;;;;11.75;4.15;;;8.80;41.20;;;;;;6297916;28;20031;-71
2022/01/22 16:22:44;;;;;;;18.17;4.68;;;8.80;41.30;;;;;;6302059;28;20028;-72
2022/01/22 16:25:45;;;;;;;9.90;3.60;;;8.70;41.40;;;;;;6285313;28;20032;-70
2022/01/22 16:28:47;;;;;;;12.70;4.00;;;8.70;41.60;;;;;;6299221;28;20063;-71
2022/01/22 16:31:48;;;;;;;20.25;4.22;;;8.70;41.70;;;;;;6302718;28;20038;-71
2022/01/22 16:34:49;;;;;;;10.88;4.95;;;8.60;41.80;;;;;;6296490;28;20380;-71
2022/01/22 16:37:50;;;;;;;12.70;4.30;;;8.50;41.90;;;;;;6317020;28;20056;-71
2022/01/22 16:40:52;;;;;;;12.55;4.40;;;8.50;42.00;;;;;;6302358;28;20034;-72
2022/01/22 16:43:58;;;;;;;16.05;4.90;;;8.50;42.10;;;;;;6319936;28;20026;-71
2022/01/22 16:54:36;;;;;;;10.43;3.70;;;8.40;42.50;;;;;;6301642;28;20028;-71
2022/01/22 16:57:25;;;;;;;9.95;4.10;;;8.30;42.60;;;;;;6319670;28;20054;-71
2022/01/22 17:00:35;;;;;;;14.38;4.78;;;8.30;42.70;;;;;;6284544;28;20204;-70
2022/01/22 17:03:36;;;;;;;18.10;5.22;;;8.30;42.90;;;;;;6301483;28;20518;-70
2022/01/22 17:06:37;;;;;;;10.68;5.10;;;8.20;42.90;;;;;;6300847;28;20036;-72
2022/01/22 17:16:00;;;;;;;10.30;4.72;;;8.10;43.50;;;;;;6301126;28;20492;-71
2022/01/22 17:19:01;;;;;;;16.05;5.68;;;8.10;43.70;;;;;;6318552;28;20066;-71
2022/01/22 17:22:03;;;;;;;15.75;6.75;;;8.10;43.90;;;;;;6284541;28;20393;-70
2022/01/22 17:25:04;;;;;;;15.07;6.63;;;8.20;44.10;;;;;;6319081;28;20048;-70
2022/01/22 17:28:07;;;;;;;17.75;6.13;;;8.20;44.20;;;;;;6301830;28;20039;-71
2022/01/22 17:31:08;;;;;;;13.02;6.03;;;8.10;44.10;;;;;;6300865;28;20028;-72
2022/01/22 17:34:09;;;;;;;12.50;5.72;;;8.10;44.10;;;;;;6318146;28;20032;-72
2022/01/22 17:37:10;;;;;;;17.38;5.80;;;8.10;44.10;;;;;;6319574;28;20027;-70
2022/01/22 17:40:12;;;;;;;13.50;5.60;;;8.10;44.20;;;;;;6285278;28;20407;-71
2022/01/22 17:43:14;;;;;;;16.00;5.70;;;8.10;44.30;;;;;;6301819;28;20373;-72
2022/01/22 17:46:15;;;;;;;21.33;5.88;;;8.10;44.40;;;;;;6278872;28;20024;-71
2022/01/22 17:49:17;;;;;;;16.80;4.95;;;8.10;44.40;;;;;;6301636;28;20039;-70
2022/01/22 17:52:18;;;;;;;13.05;5.88;;;8.10;44.50;;;;;;6300612;28;20048;-70
2022/01/22 17:55:19;;;;;;;16.30;7.45;;;8.00;44.50;;;;;;6318472;28;20457;-70
2022/01/22 17:58:20;;;;;;;18.15;6.07;;;8.00;44.60;;;;;;6294311;28;20020;-70
2022/01/22 18:01:22;;;;;;;18.50;6.50;;;8.00;44.70;;;;;;6301225;28;20024;-70
2022/01/22 18:04:24;;;;;;;16.85;5.95;;;7.90;44.80;;;;;;6300918;28;20073;-70
2022/01/22 18:07:27;;;;;;;15.15;6.68;;;7.90;44.80;;;;;;6301061;28;20031;-71
2022/01/22 18:10:38;;;;;;;14.65;6.25;;;7.90;44.90;;;;;;6301445;28;20054;-71
2022/01/22 18:13:44;;;;;;;15.80;6.70;;;7.90;45.10;;;;;;6284564;28;20059;-70
2022/01/22 18:16:48;;;;;;;20.67;6.18;;;7.90;45.10;;;;;;6301026;28;20032;-70
2022/01/22 18:19:54;;;;;;;12.32;6.30;;;7.90;45.10;;;;;;6300780;28;20082;-70
2022/01/22 18:22:57;;;;;;;12.55;5.07;;;7.80;45.20;;;;;;6300399;28;20642;-71